createdAt,value
2023-02-22T00:02:25.784Z,8.60
2023-02-22T00:04:55.128Z,7.17
2023-02-22T00:07:23.742Z,7.20
2023-02-22T00:09:52.913Z,6.13
2023-02-22T00:12:24.805Z,9.70
2023-02-22T00:14:53.155Z,5.80
2023-02-22T00:17:21.658Z,6.43
2023-02-22T00:19:50.950Z,4.23
2023-02-22T00:22:20.788Z,6.10
2023-02-22T00:24:50.537Z,12.33
2023-02-22T00:27:19.038Z,6.23
2023-02-22T00:29:50.216Z,4.57
2023-02-22T00:32:18.843Z,8.93
2023-02-22T00:34:53.156Z,8.50
2023-02-22T00:37:21.718Z,7.70
2023-02-22T00:39:51.878Z,5.13
2023-02-22T00:42:21.490Z,4.63
2023-02-22T00:44:51.495Z,4.47
2023-02-22T00:47:19.821Z,11.07
2023-02-22T00:49:48.864Z,5.53
2023-02-22T00:52:17.593Z,5.33
2023-02-22T00:54:46.212Z,7.43
2023-02-22T00:57:15.341Z,7.50
2023-02-22T00:59:44.985Z,10.63
2023-02-22T01:02:14.824Z,5.47
2023-02-22T01:04:43.674Z,7.07
2023-02-22T01:07:14.528Z,5.83
2023-02-22T01:09:44.274Z,5.80
2023-02-22T01:12:13.640Z,6.33
2023-02-22T01:14:42.865Z,6.37
2023-02-22T01:17:12.404Z,5.20
2023-02-22T01:19:43.763Z,5.90
2023-02-22T01:22:18.922Z,5.57
2023-02-22T01:24:48.589Z,5.70
2023-02-22T01:27:18.226Z,7.27
2023-02-22T01:29:46.459Z,8.53
2023-02-22T01:32:16.316Z,8.40
2023-02-22T01:34:47.327Z,6.80
2023-02-22T01:37:16.605Z,7.90
2023-02-22T01:39:45.798Z,8.37
2023-02-22T01:42:14.857Z,9.00
2023-02-22T01:44:44.223Z,7.47
2023-02-22T01:47:13.915Z,7.30
2023-02-22T01:49:47.905Z,7.03
2023-02-22T01:52:21.671Z,9.70
2023-02-22T01:54:55.435Z,11.60
2023-02-22T01:57:30.037Z,7.60
2023-02-22T02:00:10.165Z,6.10
2023-02-22T02:02:47.209Z,5.93
2023-02-22T02:05:19.267Z,8.87
2023-02-22T02:07:47.634Z,9.87
2023-02-22T02:10:16.972Z,5.67
2023-02-22T02:12:48.934Z,9.40
2023-02-22T02:15:23.586Z,8.40
2023-02-22T02:17:54.261Z,7.00
2023-02-22T02:20:29.655Z,7.97
2023-02-22T02:23:06.813Z,7.00
2023-02-22T02:26:11.384Z,10.37
2023-02-22T02:29:23.790Z,8.00
2023-02-22T02:32:34.504Z,10.63
2023-02-22T02:35:13.036Z,8.17
2023-02-22T02:37:50.584Z,8.67
2023-02-22T02:40:26.058Z,9.87
2023-02-22T02:43:01.810Z,8.53
2023-02-22T02:45:36.888Z,9.37
2023-02-22T02:48:12.622Z,10.53
2023-02-22T02:50:46.513Z,11.73
2023-02-22T02:53:17.982Z,7.03
2023-02-22T02:55:47.244Z,9.73
2023-02-22T02:58:21.163Z,13.07
2023-02-22T03:00:52.480Z,11.93
2023-02-22T03:03:56.912Z,8.73
2023-02-22T03:07:04.518Z,12.23
2023-02-22T03:09:43.431Z,8.20
2023-02-22T03:12:23.945Z,7.80
2023-02-22T03:15:01.877Z,9.47
2023-02-22T03:17:42.646Z,12.40
2023-02-22T03:20:18.030Z,8.17
2023-02-22T03:22:54.522Z,11.13
2023-02-22T03:25:29.144Z,10.07
2023-02-22T03:28:07.264Z,10.13
2023-02-22T03:30:40.707Z,7.53
2023-02-22T03:33:14.442Z,7.17
2023-02-22T03:35:48.168Z,6.73
2023-02-22T03:38:21.447Z,8.40
2023-02-22T03:40:54.832Z,8.33
2023-02-22T03:43:27.255Z,8.57
2023-02-22T03:45:59.958Z,8.70
2023-02-22T03:48:36.789Z,11.90
2023-02-22T03:51:07.607Z,10.40
2023-02-22T03:53:38.757Z,9.50
2023-02-22T03:56:12.333Z,8.00
2023-02-22T03:58:44.254Z,15.23
2023-02-22T04:01:13.553Z,13.03
2023-02-22T04:03:43.037Z,8.97
2023-02-22T04:06:12.007Z,12.77
2023-02-22T04:08:44.092Z,10.33
2023-02-22T04:11:15.228Z,10.00
2023-02-22T04:13:46.118Z,10.50
2023-02-22T04:16:15.137Z,9.13
2023-02-22T04:18:46.410Z,12.40
2023-02-22T04:21:17.499Z,11.20
2023-02-22T04:23:50.455Z,9.27
2023-02-22T04:26:19.722Z,8.40
2023-02-22T04:28:56.891Z,9.97
2023-02-22T04:31:28.057Z,11.50
2023-02-22T04:33:59.729Z,7.80
2023-02-22T04:36:32.888Z,12.07
2023-02-22T04:39:05.324Z,9.77
2023-02-22T04:41:34.707Z,9.50
2023-02-22T04:44:03.463Z,11.10
2023-02-22T04:46:33.178Z,11.63
2023-02-22T04:49:05.168Z,8.63
2023-02-22T04:51:37.041Z,11.60
2023-02-22T04:54:12.877Z,9.17
2023-02-22T04:56:45.686Z,9.63
2023-02-22T04:59:14.000Z,8.37
2023-02-22T05:01:45.852Z,7.90
2023-02-22T05:04:17.637Z,10.27
2023-02-22T05:06:46.200Z,7.97
2023-02-22T05:09:19.727Z,11.37
2023-02-22T05:11:48.278Z,11.77
2023-02-22T05:14:16.791Z,11.93
2023-02-22T05:16:46.077Z,13.27
2023-02-22T05:19:14.298Z,9.10
2023-02-22T05:21:43.057Z,10.20
2023-02-22T05:24:11.398Z,11.20
2023-02-22T05:26:42.398Z,11.00
2023-02-22T05:29:10.702Z,11.63
2023-02-22T05:31:41.960Z,8.73
2023-02-22T05:34:10.589Z,9.00
2023-02-22T05:36:38.917Z,9.83
2023-02-22T05:39:07.558Z,11.73
2023-02-22T05:41:36.086Z,8.40
2023-02-22T05:44:06.390Z,9.17
2023-02-22T05:46:34.943Z,11.00
2023-02-22T05:49:03.636Z,10.43
2023-02-22T05:51:31.967Z,12.30
2023-02-22T05:54:00.948Z,10.50
2023-02-22T05:56:32.110Z,11.13
2023-02-22T05:59:00.656Z,9.40
2023-02-22T06:01:30.935Z,12.60
2023-02-22T06:03:59.590Z,11.27
2023-02-22T06:06:27.862Z,11.57
2023-02-22T06:08:57.040Z,8.70
2023-02-22T06:11:25.843Z,10.73
2023-02-22T06:13:55.068Z,12.00
2023-02-22T06:16:24.096Z,10.60
2023-02-22T06:18:53.892Z,12.83
2023-02-22T06:21:22.571Z,9.20
2023-02-22T06:23:50.787Z,8.47
2023-02-22T06:26:20.752Z,10.70
2023-02-22T06:28:51.086Z,10.47
2023-02-22T06:31:19.832Z,9.33
2023-02-22T06:33:48.468Z,11.27
2023-02-22T06:36:19.055Z,14.40
2023-02-22T06:38:47.205Z,8.33
2023-02-22T06:41:17.215Z,11.13
2023-02-22T06:43:49.422Z,10.80
2023-02-22T06:46:19.534Z,9.20
2023-02-22T06:48:52.068Z,9.20
2023-02-22T06:51:22.938Z,8.47
2023-02-22T06:53:53.587Z,11.30
2023-02-22T06:56:22.426Z,11.43
2023-02-22T06:58:50.774Z,11.50
2023-02-22T07:01:23.388Z,12.00
2023-02-22T07:03:51.933Z,13.17
2023-02-22T07:06:21.787Z,14.63
2023-02-22T07:08:51.046Z,12.53
2023-02-22T07:11:19.888Z,11.23
2023-02-22T07:13:51.126Z,14.83
2023-02-22T07:16:19.621Z,9.67
2023-02-22T07:18:48.004Z,12.30
2023-02-22T07:21:16.828Z,9.77
2023-02-22T07:23:52.624Z,8.17
2023-02-22T07:26:21.901Z,16.83
2023-02-22T07:28:50.560Z,14.77
2023-02-22T07:31:20.432Z,15.93
2023-02-22T07:33:49.103Z,9.40
2023-02-22T07:36:18.553Z,12.93
2023-02-22T07:38:48.570Z,15.27
2023-02-22T07:41:17.893Z,16.57
2023-02-22T07:43:47.037Z,15.40
2023-02-22T07:46:16.286Z,15.20
2023-02-22T07:48:45.215Z,14.00
2023-02-22T07:51:17.645Z,12.87
2023-02-22T07:53:49.778Z,19.40
2023-02-22T07:56:19.532Z,14.37
2023-02-22T07:58:47.934Z,16.63
2023-02-22T08:01:16.760Z,16.47
2023-02-22T08:03:47.806Z,19.90
2023-02-22T08:06:16.229Z,13.37
2023-02-22T08:08:45.834Z,14.57
2023-02-22T08:11:17.155Z,19.50
2023-02-22T08:13:45.832Z,16.07
2023-02-22T08:16:15.357Z,12.43
2023-02-22T08:18:43.995Z,15.07
2023-02-22T08:21:12.547Z,18.83
2023-02-22T08:23:41.325Z,13.10
2023-02-22T08:26:15.543Z,15.83
2023-02-22T08:28:45.937Z,15.10
2023-02-22T08:31:14.802Z,14.93
2023-02-22T08:33:43.094Z,16.10
2023-02-22T08:36:12.483Z,17.40
2023-02-22T08:38:41.045Z,23.70
2023-02-22T08:41:12.234Z,15.70
2023-02-22T08:43:40.832Z,18.37
2023-02-22T08:46:10.932Z,17.10
2023-02-22T08:48:39.396Z,16.20
2023-02-22T08:51:10.358Z,15.93
2023-02-22T08:53:39.108Z,14.10
2023-02-22T08:56:08.152Z,14.33
2023-02-22T08:58:37.990Z,14.20
2023-02-22T09:01:06.860Z,16.67
2023-02-22T09:03:36.842Z,12.20
2023-02-22T09:06:10.389Z,15.70
2023-02-22T09:08:39.836Z,10.70
2023-02-22T09:11:08.760Z,12.43
2023-02-22T09:13:37.090Z,11.20
2023-02-22T09:16:07.567Z,10.67
2023-02-22T09:18:44.092Z,17.23
2023-02-22T09:21:15.671Z,10.20
2023-02-22T09:23:44.394Z,13.97
2023-02-22T09:26:19.137Z,9.40
2023-02-22T09:28:47.501Z,12.80
2023-02-22T09:31:16.611Z,12.40
2023-02-22T09:33:49.012Z,11.90
2023-02-22T09:36:19.109Z,8.70
2023-02-22T09:38:47.704Z,11.00
2023-02-22T09:41:21.559Z,8.03
2023-02-22T09:43:55.004Z,11.07
2023-02-22T09:46:30.704Z,13.10
2023-02-22T09:49:06.495Z,9.90
2023-02-22T09:51:41.734Z,9.07
2023-02-22T09:54:20.735Z,11.40
2023-02-22T09:56:51.786Z,11.20
2023-02-22T09:59:27.133Z,12.20
2023-02-22T10:02:02.758Z,9.90
2023-02-22T10:04:42.137Z,11.60
2023-02-22T10:07:19.539Z,9.73
2023-02-22T10:09:53.689Z,14.07
2023-02-22T10:12:31.232Z,11.13
2023-02-22T10:15:37.720Z,24.27
2023-02-22T10:18:42.734Z,15.00
2023-02-22T10:21:23.632Z,10.30
2023-02-22T10:24:00.182Z,9.90
2023-02-22T10:26:32.116Z,9.10
2023-02-22T10:29:04.457Z,11.17
2023-02-22T10:31:35.074Z,14.27
2023-02-22T10:34:07.139Z,9.30
2023-02-22T10:36:39.413Z,13.20
2023-02-22T10:39:23.579Z,16.67
2023-02-22T10:41:56.740Z,14.33
2023-02-22T10:44:25.505Z,13.97
2023-02-22T10:46:54.508Z,15.80
2023-02-22T10:49:25.366Z,13.97
2023-02-22T10:52:01.007Z,15.60
2023-02-22T10:54:33.481Z,15.70
2023-02-22T10:57:04.363Z,13.87
2023-02-22T10:59:36.467Z,13.23
2023-02-22T11:02:19.688Z,12.80
2023-02-22T11:04:52.151Z,15.23
2023-02-22T11:07:25.043Z,19.70
2023-02-22T11:09:57.056Z,16.67
2023-02-22T11:12:32.089Z,15.00
2023-02-22T11:15:28.140Z,13.27
2023-02-22T11:18:01.526Z,16.63
2023-02-22T11:20:34.833Z,19.97
2023-02-22T11:23:08.416Z,19.83
2023-02-22T11:25:39.013Z,19.20
2023-02-22T11:28:15.195Z,18.83
2023-02-22T11:30:48.215Z,17.40
2023-02-22T11:33:23.898Z,18.07
2023-02-22T11:35:54.491Z,23.37
2023-02-22T11:38:26.185Z,18.57
2023-02-22T11:41:16.106Z,21.00
2023-02-22T11:43:46.748Z,20.00
2023-02-22T11:46:19.173Z,17.80
2023-02-22T11:48:58.463Z,22.07
2023-02-22T11:51:39.174Z,24.93
2023-02-22T11:54:43.393Z,18.00
2023-02-22T11:57:47.817Z,19.13
2023-02-22T12:00:26.114Z,21.47
2023-02-22T12:03:22.362Z,23.10
2023-02-22T12:06:14.463Z,26.53
2023-02-22T12:09:01.463Z,22.93
2023-02-22T12:11:44.752Z,25.17
2023-02-22T12:14:24.328Z,20.57
2023-02-22T12:17:14.541Z,18.90
2023-02-22T12:19:47.355Z,18.53
2023-02-22T12:22:21.558Z,21.70
2023-02-22T12:25:08.585Z,14.80
2023-02-22T12:27:45.523Z,26.67
2023-02-22T12:30:20.924Z,25.50
2023-02-22T12:32:54.241Z,26.43
2023-02-22T12:35:27.314Z,21.67
2023-02-22T12:38:06.773Z,23.90
2023-02-22T12:40:41.448Z,20.90
2023-02-22T12:43:17.298Z,20.70
2023-02-22T12:45:51.887Z,30.73
2023-02-22T12:48:31.257Z,20.67
2023-02-22T12:51:05.151Z,23.10
2023-02-22T12:53:38.263Z,18.17
2023-02-22T12:56:23.141Z,24.97
2023-02-22T12:58:59.089Z,19.93
2023-02-22T13:01:32.120Z,20.07
2023-02-22T13:04:19.418Z,19.87
2023-02-22T13:07:07.696Z,25.23
2023-02-22T13:10:02.169Z,17.07
2023-02-22T13:12:40.885Z,16.33
2023-02-22T13:15:20.305Z,20.80
2023-02-22T13:18:01.893Z,24.43
2023-02-22T13:20:35.532Z,21.70
2023-02-22T13:23:10.682Z,18.57
2023-02-22T13:25:47.054Z,23.93
2023-02-22T13:28:23.420Z,19.03
2023-02-22T13:31:06.128Z,16.07
2023-02-22T13:33:50.494Z,18.60
2023-02-22T13:36:36.720Z,23.30
2023-02-22T13:39:37.186Z,21.30
2023-02-22T13:42:25.904Z,27.53
2023-02-22T13:45:35.216Z,23.30
2023-02-22T13:48:23.585Z,24.90
2023-02-22T13:51:06.792Z,21.20
2023-02-22T13:53:45.490Z,23.53
2023-02-22T13:56:16.311Z,20.23
2023-02-22T13:58:51.926Z,29.60
2023-02-22T14:01:42.195Z,23.33
2023-02-22T14:04:37.318Z,17.93
2023-02-22T14:07:56.599Z,22.93
2023-02-22T14:10:48.001Z,26.37
2023-02-22T14:13:19.240Z,22.07
2023-02-22T14:16:20.373Z,27.70
2023-02-22T14:18:51.968Z,21.80
2023-02-22T14:21:22.667Z,21.63
2023-02-22T14:23:53.441Z,20.63
2023-02-22T14:26:27.999Z,25.00
2023-02-22T14:28:59.328Z,24.00
2023-02-22T14:31:36.368Z,24.93
2023-02-22T14:34:10.584Z,21.23
2023-02-22T14:36:53.220Z,27.83
2023-02-22T14:39:27.093Z,24.00
2023-02-22T14:42:03.364Z,23.30
2023-02-22T14:44:37.141Z,25.40
2023-02-22T14:47:08.948Z,20.53
2023-02-22T14:49:42.680Z,24.13
2023-02-22T14:52:21.210Z,21.20
2023-02-22T14:54:59.021Z,26.33
2023-02-22T14:57:39.220Z,21.43
2023-02-22T15:00:31.218Z,20.77
2023-02-22T15:03:02.449Z,27.03
2023-02-22T15:05:38.474Z,20.43
2023-02-22T15:08:09.272Z,22.27
2023-02-22T15:10:44.380Z,22.90
2023-02-22T15:13:20.985Z,24.37
2023-02-22T15:15:51.014Z,20.50
2023-02-22T15:18:23.430Z,21.00
2023-02-22T15:20:56.384Z,24.33
2023-02-22T15:23:33.493Z,19.30
2023-02-22T15:26:03.320Z,24.87
2023-02-22T15:28:36.592Z,23.83
2023-02-22T15:31:19.910Z,21.03
2023-02-22T15:33:53.297Z,22.63
2023-02-22T15:36:23.988Z,20.57
2023-02-22T15:38:56.497Z,29.43
2023-02-22T15:41:31.624Z,19.30
2023-02-22T15:44:22.666Z,18.07
2023-02-22T15:46:54.725Z,18.97
2023-02-22T15:49:25.902Z,22.17
2023-02-22T15:52:05.469Z,24.30
2023-02-22T15:54:44.252Z,17.70
2023-02-22T15:57:17.679Z,19.10
2023-02-22T15:59:51.607Z,21.80
2023-02-22T16:02:33.507Z,22.50
2023-02-22T16:05:06.595Z,20.97
2023-02-22T16:07:40.958Z,20.20
2023-02-22T16:10:25.123Z,19.37
2023-02-22T16:13:14.470Z,19.87
2023-02-22T16:15:58.421Z,18.83
2023-02-22T16:18:33.785Z,21.30
2023-02-22T16:21:06.308Z,25.93
2023-02-22T16:23:45.566Z,27.53
2023-02-22T16:26:23.559Z,20.20
2023-02-22T16:28:54.781Z,26.07
2023-02-22T16:31:26.572Z,33.93
2023-02-22T16:33:56.137Z,18.10
2023-02-22T16:36:38.052Z,20.77
2023-02-22T16:39:10.147Z,17.93
2023-02-22T16:41:40.918Z,27.47
2023-02-22T16:44:12.786Z,20.03
2023-02-22T16:46:43.271Z,45.87
2023-02-22T16:49:12.496Z,28.03
2023-02-22T16:51:45.868Z,35.33
2023-02-22T16:54:20.424Z,28.83
2023-02-22T16:56:49.053Z,34.27
2023-02-22T16:59:22.598Z,36.03
2023-02-22T17:02:00.688Z,35.93
2023-02-22T17:04:35.651Z,29.17
2023-02-22T17:07:05.730Z,33.83
2023-02-22T17:09:36.475Z,29.70
2023-02-22T17:12:05.327Z,28.67
2023-02-22T17:14:36.955Z,28.23
2023-02-22T17:17:07.143Z,23.60
2023-02-22T17:19:39.934Z,26.90
2023-02-22T17:22:23.065Z,22.83
2023-02-22T17:24:56.788Z,29.97
2023-02-22T17:27:32.755Z,21.27
2023-02-22T17:30:08.096Z,23.40
2023-02-22T17:32:44.908Z,25.20
2023-02-22T17:35:21.960Z,27.60
2023-02-22T17:37:59.941Z,24.97
2023-02-22T17:40:36.810Z,25.83
2023-02-22T17:43:08.824Z,20.13
2023-02-22T17:45:40.869Z,26.03
2023-02-22T17:48:10.843Z,24.33
2023-02-22T17:50:39.934Z,22.13
2023-02-22T17:53:10.869Z,22.03
2023-02-22T17:55:41.767Z,28.80
2023-02-22T17:58:14.707Z,21.90
2023-02-22T18:00:46.375Z,31.60
2023-02-22T18:03:21.941Z,23.87
2023-02-22T18:05:55.897Z,23.10
2023-02-22T18:08:26.254Z,27.00
2023-02-22T18:10:57.159Z,23.93
2023-02-22T18:13:28.184Z,28.00
2023-02-22T18:16:00.489Z,24.63
2023-02-22T18:18:30.391Z,27.00
2023-02-22T18:21:00.688Z,25.00
2023-02-22T18:23:30.558Z,26.13
2023-02-22T18:26:15.758Z,26.50
2023-02-22T18:28:45.982Z,25.37
2023-02-22T18:31:17.250Z,28.30
2023-02-22T18:33:50.283Z,26.63
2023-02-22T18:36:22.798Z,24.40
2023-02-22T18:38:53.206Z,34.20
2023-02-22T18:41:25.670Z,31.70
2023-02-22T18:43:58.989Z,23.83
2023-02-22T18:46:30.343Z,26.27
2023-02-22T18:49:01.233Z,28.50
2023-02-22T18:51:29.750Z,29.00
2023-02-22T18:54:01.105Z,24.20
2023-02-22T18:56:34.000Z,31.67
2023-02-22T18:59:03.994Z,36.20
2023-02-22T19:01:38.975Z,25.67
2023-02-22T19:04:13.190Z,31.23
2023-02-22T19:06:43.270Z,27.90
2023-02-22T19:09:11.711Z,28.43
2023-02-22T19:11:44.912Z,30.23
2023-02-22T19:14:14.218Z,30.77
2023-02-22T19:16:48.734Z,31.43
2023-02-22T19:19:22.734Z,25.83
2023-02-22T19:21:56.269Z,33.23
2023-02-22T19:24:25.345Z,45.93
2023-02-22T19:26:57.545Z,23.73
2023-02-22T19:29:26.362Z,27.00
2023-02-22T19:31:54.890Z,29.20
2023-02-22T19:34:25.910Z,31.40
2023-02-22T19:36:54.617Z,26.43
2023-02-22T19:39:24.219Z,28.23
2023-02-22T19:41:53.427Z,27.77
2023-02-22T19:44:21.994Z,26.13
2023-02-22T19:46:51.041Z,40.93
2023-02-22T19:49:19.546Z,32.83
2023-02-22T19:51:49.734Z,26.83
2023-02-22T19:54:21.588Z,28.53
2023-02-22T19:56:51.032Z,26.90
2023-02-22T19:59:23.190Z,30.40
2023-02-22T20:01:54.100Z,31.23
2023-02-22T20:04:22.992Z,34.03
2023-02-22T20:06:55.091Z,28.50
2023-02-22T20:09:30.200Z,32.10
2023-02-22T20:11:58.681Z,27.90
2023-02-22T20:14:28.582Z,24.10
2023-02-22T20:16:58.597Z,27.73
2023-02-22T20:19:28.118Z,27.83
2023-02-22T20:22:00.228Z,26.20
2023-02-22T20:24:28.829Z,36.27
2023-02-22T20:26:58.280Z,33.97
2023-02-22T20:29:30.622Z,36.30
2023-02-22T20:32:00.073Z,30.97
2023-02-22T20:34:31.580Z,35.77
2023-02-22T20:37:02.400Z,28.87
2023-02-22T20:39:32.774Z,30.87
2023-02-22T20:42:04.908Z,29.97
2023-02-22T20:44:33.664Z,25.80
2023-02-22T20:47:03.709Z,25.00
2023-02-22T20:49:32.248Z,25.13
2023-02-22T20:52:02.440Z,31.67
2023-02-22T20:54:31.244Z,22.60
2023-02-22T20:57:00.715Z,24.23
2023-02-22T20:59:30.575Z,19.80
2023-02-22T21:01:58.941Z,21.53
2023-02-22T21:04:33.160Z,19.03
2023-02-22T21:07:03.828Z,22.63
2023-02-22T21:09:33.962Z,21.70
2023-02-22T21:12:03.121Z,24.13
2023-02-22T21:14:32.814Z,22.17
2023-02-22T21:17:04.623Z,21.20
2023-02-22T21:19:33.566Z,20.13
2023-02-22T21:22:08.265Z,20.83
2023-02-22T21:24:40.167Z,19.93
2023-02-22T21:27:11.837Z,24.23
2023-02-22T21:29:40.791Z,20.50
2023-02-22T21:32:09.996Z,18.87
2023-02-22T21:34:39.064Z,21.10
2023-02-22T21:37:09.318Z,19.50
2023-02-22T21:39:39.568Z,15.93
2023-02-22T21:45:22.234Z,13.60
2023-02-22T21:47:54.637Z,13.67
2023-02-22T21:50:25.607Z,14.27
2023-02-22T21:52:55.936Z,21.93
2023-02-22T21:55:24.837Z,15.40
2023-02-22T21:57:55.328Z,21.03
2023-02-22T22:00:29.356Z,16.23
2023-02-22T22:03:05.872Z,20.30
2023-02-22T22:05:35.092Z,22.63
2023-02-22T22:08:07.627Z,26.43
2023-02-22T22:10:37.675Z,13.87
2023-02-22T22:13:09.108Z,19.33
2023-02-22T22:15:38.179Z,16.13
2023-02-22T22:18:08.323Z,17.10
2023-02-22T22:20:39.020Z,22.63
2023-02-22T22:23:09.935Z,19.37
2023-02-22T22:25:39.486Z,18.13
2023-02-22T22:28:09.143Z,16.97
2023-02-22T22:30:38.717Z,19.37
2023-02-22T22:33:11.589Z,19.10
2023-02-22T22:35:41.964Z,19.00
2023-02-22T22:38:15.168Z,17.50
2023-02-22T22:40:43.789Z,22.00
2023-02-22T22:43:12.399Z,23.80
2023-02-22T22:45:41.019Z,20.53
2023-02-22T22:48:14.767Z,18.20
2023-02-22T22:50:46.645Z,17.70
2023-02-22T22:53:17.963Z,20.93
2023-02-22T22:55:46.479Z,22.63
2023-02-22T22:58:14.781Z,22.23
2023-02-22T23:00:46.347Z,20.70
2023-02-22T23:03:19.140Z,21.27
2023-02-22T23:05:48.719Z,18.43
2023-02-22T23:08:21.087Z,21.70
2023-02-22T23:10:49.459Z,19.67
2023-02-22T23:13:17.855Z,21.10
2023-02-22T23:15:48.442Z,23.57
2023-02-22T23:18:20.532Z,20.90
2023-02-22T23:20:55.539Z,23.40
2023-02-22T23:23:27.910Z,17.40
2023-02-22T23:26:11.756Z,26.67
2023-02-22T23:28:42.843Z,22.60
2023-02-22T23:31:13.985Z,30.20
2023-02-22T23:33:43.018Z,41.70
2023-02-22T23:36:13.241Z,36.27
2023-02-22T23:38:43.546Z,35.30
2023-02-22T23:41:16.722Z,34.00
2023-02-22T23:43:47.446Z,29.40
2023-02-22T23:46:19.605Z,33.20
2023-02-22T23:48:52.188Z,30.47
2023-02-22T23:51:25.441Z,32.17
2023-02-22T23:53:56.892Z,36.30
2023-02-22T23:56:31.027Z,29.97
2023-02-22T23:58:59.667Z,28.07
